sensor_id;sensor_type;location;lat;lon;timestamp;P1;durP1;ratioP1;P2;durP2;ratioP2
10170;SDS011;5127;50.922;6.988;2024-02-21T00:01:14;6.40;;;3.60;;
10170;SDS011;5127;50.922;6.988;2024-02-21T00:03:42;5.77;;;3.40;;
10170;SDS011;5127;50.922;6.988;2024-02-21T00:06:09;8.20;;;3.83;;
10170;SDS011;5127;50.922;6.988;2024-02-21T00:08:37;6.27;;;3.40;;
10170;SDS011;5127;50.922;6.988;2024-02-21T00:11:05;8.00;;;3.73;;
10170;SDS011;5127;50.922;6.988;2024-02-21T00:13:32;11.70;;;4.47;;
10170;SDS011;5127;50.922;6.988;2024-02-21T00:15:59;6.97;;;3.50;;
10170;SDS011;5127;50.922;6.988;2024-02-21T00:18:27;8.40;;;4.00;;
10170;SDS011;5127;50.922;6.988;2024-02-21T00:20:54;7.87;;;3.90;;
10170;SDS011;5127;50.922;6.988;2024-02-21T00:23:22;5.33;;;3.77;;
10170;SDS011;5127;50.922;6.988;2024-02-21T00:25:50;7.73;;;3.73;;
10170;SDS011;5127;50.922;6.988;2024-02-21T00:28:18;7.53;;;3.70;;
10170;SDS011;5127;50.922;6.988;2024-02-21T00:30:45;7.37;;;3.57;;
10170;SDS011;5127;50.922;6.988;2024-02-21T00:33:14;6.83;;;3.40;;
10170;SDS011;5127;50.922;6.988;2024-02-21T00:35:41;10.17;;;3.67;;
10170;SDS011;5127;50.922;6.988;2024-02-21T00:38:08;5.00;;;3.70;;
10170;SDS011;5127;50.922;6.988;2024-02-21T00:40:36;6.30;;;3.50;;
10170;SDS011;5127;50.922;6.988;2024-02-21T00:43:04;7.00;;;3.47;;
10170;SDS011;5127;50.922;6.988;2024-02-21T00:45:32;10.43;;;4.03;;
10170;SDS011;5127;50.922;6.988;2024-02-21T00:47:59;8.43;;;3.83;;
10170;SDS011;5127;50.922;6.988;2024-02-21T00:50:26;8.13;;;3.87;;
10170;SDS011;5127;50.922;6.988;2024-02-21T00:52:53;6.97;;;3.70;;
10170;SDS011;5127;50.922;6.988;2024-02-21T00:55:20;7.93;;;3.67;;
10170;SDS011;5127;50.922;6.988;2024-02-21T00:57:48;8.40;;;3.80;;
10170;SDS011;5127;50.922;6.988;2024-02-21T01:00:17;7.63;;;3.67;;
10170;SDS011;5127;50.922;6.988;2024-02-21T01:02:45;4.70;;;3.60;;
10170;SDS011;5127;50.922;6.988;2024-02-21T01:05:12;6.40;;;3.47;;
10170;SDS011;5127;50.922;6.988;2024-02-21T01:07:39;7.00;;;4.03;;
10170;SDS011;5127;50.922;6.988;2024-02-21T01:10:07;7.33;;;3.80;;
10170;SDS011;5127;50.922;6.988;2024-02-21T01:12:35;7.10;;;3.93;;
10170;SDS011;5127;50.922;6.988;2024-02-21T01:15:02;7.30;;;3.93;;
10170;SDS011;5127;50.922;6.988;2024-02-21T01:17:31;7.77;;;4.27;;
10170;SDS011;5127;50.922;6.988;2024-02-21T01:19:58;7.73;;;3.90;;
10170;SDS011;5127;50.922;6.988;2024-02-21T01:22:26;6.13;;;3.60;;
10170;SDS011;5127;50.922;6.988;2024-02-21T01:24:54;6.80;;;3.87;;
10170;SDS011;5127;50.922;6.988;2024-02-21T01:27:21;4.83;;;3.43;;
10170;SDS011;5127;50.922;6.988;2024-02-21T01:29:48;6.53;;;4.00;;
10170;SDS011;5127;50.922;6.988;2024-02-21T01:32:15;6.07;;;3.70;;
10170;SDS011;5127;50.922;6.988;2024-02-21T01:34:44;7.57;;;4.10;;
10170;SDS011;5127;50.922;6.988;2024-02-21T01:37:11;7.50;;;3.47;;
10170;SDS011;5127;50.922;6.988;2024-02-21T01:39:38;6.13;;;3.90;;
10170;SDS011;5127;50.922;6.988;2024-02-21T01:42:06;5.93;;;3.47;;
10170;SDS011;5127;50.922;6.988;2024-02-21T01:44:34;7.30;;;3.80;;
10170;SDS011;5127;50.922;6.988;2024-02-21T01:47:02;7.90;;;4.00;;
10170;SDS011;5127;50.922;6.988;2024-02-21T01:49:29;8.37;;;3.80;;
10170;SDS011;5127;50.922;6.988;2024-02-21T01:51:58;6.40;;;3.70;;
10170;SDS011;5127;50.922;6.988;2024-02-21T01:54:24;8.37;;;3.97;;
10170;SDS011;5127;50.922;6.988;2024-02-21T01:56:54;6.87;;;4.03;;
10170;SDS011;5127;50.922;6.988;2024-02-21T01:59:21;6.80;;;3.73;;
10170;SDS011;5127;50.922;6.988;2024-02-21T02:01:49;8.30;;;3.70;;
10170;SDS011;5127;50.922;6.988;2024-02-21T02:04:18;7.23;;;3.60;;
10170;SDS011;5127;50.922;6.988;2024-02-21T02:06:46;6.93;;;3.80;;
10170;SDS011;5127;50.922;6.988;2024-02-21T02:09:15;6.77;;;3.40;;
10170;SDS011;5127;50.922;6.988;2024-02-21T02:11:43;9.87;;;4.50;;
10170;SDS011;5127;50.922;6.988;2024-02-21T02:14:10;7.53;;;4.13;;
10170;SDS011;5127;50.922;6.988;2024-02-21T02:16:37;7.80;;;4.03;;
10170;SDS011;5127;50.922;6.988;2024-02-21T02:19:05;8.97;;;4.03;;
10170;SDS011;5127;50.922;6.988;2024-02-21T02:21:32;7.67;;;3.80;;
10170;SDS011;5127;50.922;6.988;2024-02-21T02:24:06;7.07;;;3.80;;
10170;SDS011;5127;50.922;6.988;2024-02-21T02:26:33;5.87;;;3.63;;
10170;SDS011;5127;50.922;6.988;2024-02-21T02:29:01;9.50;;;4.10;;
10170;SDS011;5127;50.922;6.988;2024-02-21T02:31:28;10.23;;;4.80;;
10170;SDS011;5127;50.922;6.988;2024-02-21T02:33:56;6.53;;;3.70;;
10170;SDS011;5127;50.922;6.988;2024-02-21T02:36:23;6.10;;;3.70;;
10170;SDS011;5127;50.922;6.988;2024-02-21T02:38:50;6.90;;;4.00;;
10170;SDS011;5127;50.922;6.988;2024-02-21T02:41:19;9.27;;;4.03;;
10170;SDS011;5127;50.922;6.988;2024-02-21T02:43:46;6.40;;;3.50;;
10170;SDS011;5127;50.922;6.988;2024-02-21T02:46:13;6.77;;;3.50;;
10170;SDS011;5127;50.922;6.988;2024-02-21T02:48:40;8.17;;;3.60;;
10170;SDS011;5127;50.922;6.988;2024-02-21T02:51:07;8.43;;;3.57;;
10170;SDS011;5127;50.922;6.988;2024-02-21T02:53:35;7.90;;;3.77;;
10170;SDS011;5127;50.922;6.988;2024-02-21T02:56:02;9.33;;;3.63;;
10170;SDS011;5127;50.922;6.988;2024-02-21T02:58:31;8.27;;;3.80;;
10170;SDS011;5127;50.922;6.988;2024-02-21T03:01:00;7.17;;;3.97;;
10170;SDS011;5127;50.922;6.988;2024-02-21T03:03:28;11.53;;;3.80;;
10170;SDS011;5127;50.922;6.988;2024-02-21T03:05:55;7.73;;;4.07;;
10170;SDS011;5127;50.922;6.988;2024-02-21T03:08:22;8.20;;;3.50;;
10170;SDS011;5127;50.922;6.988;2024-02-21T03:10:50;7.07;;;3.37;;
10170;SDS011;5127;50.922;6.988;2024-02-21T03:13:17;7.80;;;3.67;;
10170;SDS011;5127;50.922;6.988;2024-02-21T03:15:46;7.47;;;3.80;;
10170;SDS011;5127;50.922;6.988;2024-02-21T03:18:13;7.00;;;3.87;;
10170;SDS011;5127;50.922;6.988;2024-02-21T03:20:40;7.77;;;3.90;;
10170;SDS011;5127;50.922;6.988;2024-02-21T03:23:07;7.80;;;3.97;;
10170;SDS011;5127;50.922;6.988;2024-02-21T03:25:35;7.13;;;3.57;;
10170;SDS011;5127;50.922;6.988;2024-02-21T03:28:02;9.07;;;4.10;;
10170;SDS011;5127;50.922;6.988;2024-02-21T03:30:30;6.40;;;3.83;;
10170;SDS011;5127;50.922;6.988;2024-02-21T03:32:58;6.67;;;3.53;;
10170;SDS011;5127;50.922;6.988;2024-02-21T03:35:26;7.20;;;3.83;;
10170;SDS011;5127;50.922;6.988;2024-02-21T03:37:54;6.97;;;4.00;;
10170;SDS011;5127;50.922;6.988;2024-02-21T03:40:21;7.43;;;3.63;;
10170;SDS011;5127;50.922;6.988;2024-02-21T03:42:48;8.43;;;3.63;;
10170;SDS011;5127;50.922;6.988;2024-02-21T03:45:15;7.30;;;3.70;;
10170;SDS011;5127;50.922;6.988;2024-02-21T03:47:43;7.90;;;3.90;;
10170;SDS011;5127;50.922;6.988;2024-02-21T03:50:11;7.13;;;3.93;;
10170;SDS011;5127;50.922;6.988;2024-02-21T03:52:39;7.90;;;3.63;;
10170;SDS011;5127;50.922;6.988;2024-02-21T03:55:06;7.33;;;3.30;;
10170;SDS011;5127;50.922;6.988;2024-02-21T03:57:34;6.70;;;3.43;;
10170;SDS011;5127;50.922;6.988;2024-02-21T04:00:01;4.97;;;3.23;;
10170;SDS011;5127;50.922;6.988;2024-02-21T04:02:33;9.47;;;3.43;;
10170;SDS011;5127;50.922;6.988;2024-02-21T04:05:00;6.83;;;3.27;;
10170;SDS011;5127;50.922;6.988;2024-02-21T04:07:28;5.80;;;3.47;;
10170;SDS011;5127;50.922;6.988;2024-02-21T04:09:56;7.13;;;3.30;;
10170;SDS011;5127;50.922;6.988;2024-02-21T04:12:23;9.17;;;3.60;;
10170;SDS011;5127;50.922;6.988;2024-02-21T04:14:51;6.27;;;2.90;;
10170;SDS011;5127;50.922;6.988;2024-02-21T04:17:18;5.87;;;3.17;;
10170;SDS011;5127;50.922;6.988;2024-02-21T04:19:44;5.53;;;3.50;;
10170;SDS011;5127;50.922;6.988;2024-02-21T04:22:11;7.63;;;3.37;;
10170;SDS011;5127;50.922;6.988;2024-02-21T04:24:40;7.77;;;3.30;;
10170;SDS011;5127;50.922;6.988;2024-02-21T04:27:07;5.83;;;3.30;;
10170;SDS011;5127;50.922;6.988;2024-02-21T04:29:34;7.20;;;3.30;;
10170;SDS011;5127;50.922;6.988;2024-02-21T04:32:01;5.17;;;3.03;;
10170;SDS011;5127;50.922;6.988;2024-02-21T04:34:29;6.60;;;3.17;;
10170;SDS011;5127;50.922;6.988;2024-02-21T04:36:56;5.37;;;3.17;;
10170;SDS011;5127;50.922;6.988;2024-02-21T04:39:24;5.37;;;3.10;;
10170;SDS011;5127;50.922;6.988;2024-02-21T04:41:52;6.90;;;3.20;;
10170;SDS011;5127;50.922;6.988;2024-02-21T04:44:20;6.53;;;2.83;;
10170;SDS011;5127;50.922;6.988;2024-02-21T04:46:48;6.13;;;2.97;;
10170;SDS011;5127;50.922;6.988;2024-02-21T04:49:15;6.67;;;3.10;;
10170;SDS011;5127;50.922;6.988;2024-02-21T04:51:42;5.13;;;2.97;;
10170;SDS011;5127;50.922;6.988;2024-02-21T04:54:09;5.20;;;2.97;;
10170;SDS011;5127;50.922;6.988;2024-02-21T04:56:37;5.67;;;2.97;;
10170;SDS011;5127;50.922;6.988;2024-02-21T04:59:05;4.43;;;2.80;;
10170;SDS011;5127;50.922;6.988;2024-02-21T05:01:32;6.63;;;2.53;;
10170;SDS011;5127;50.922;6.988;2024-02-21T05:03:59;5.83;;;2.90;;
10170;SDS011;5127;50.922;6.988;2024-02-21T05:06:28;4.37;;;2.60;;
10170;SDS011;5127;50.922;6.988;2024-02-21T05:08:55;6.40;;;2.73;;
10170;SDS011;5127;50.922;6.988;2024-02-21T05:11:23;4.20;;;2.80;;
10170;SDS011;5127;50.922;6.988;2024-02-21T05:13:51;6.67;;;2.90;;
10170;SDS011;5127;50.922;6.988;2024-02-21T05:16:19;5.23;;;2.90;;
10170;SDS011;5127;50.922;6.988;2024-02-21T05:18:47;5.83;;;2.87;;
10170;SDS011;5127;50.922;6.988;2024-02-21T05:21:14;5.10;;;2.67;;
10170;SDS011;5127;50.922;6.988;2024-02-21T05:23:41;4.80;;;2.90;;
10170;SDS011;5127;50.922;6.988;2024-02-21T05:26:08;5.60;;;2.70;;
10170;SDS011;5127;50.922;6.988;2024-02-21T05:28:36;5.13;;;2.70;;
10170;SDS011;5127;50.922;6.988;2024-02-21T05:31:03;5.30;;;2.73;;
10170;SDS011;5127;50.922;6.988;2024-02-21T05:33:32;4.57;;;2.40;;
10170;SDS011;5127;50.922;6.988;2024-02-21T05:35:59;4.83;;;2.40;;
10170;SDS011;5127;50.922;6.988;2024-02-21T05:38:26;3.23;;;2.40;;
10170;SDS011;5127;50.922;6.988;2024-02-21T05:40:53;5.67;;;2.80;;
10170;SDS011;5127;50.922;6.988;2024-02-21T05:43:20;5.80;;;2.60;;
10170;SDS011;5127;50.922;6.988;2024-02-21T05:45:47;5.83;;;2.97;;
10170;SDS011;5127;50.922;6.988;2024-02-21T05:48:15;4.00;;;2.80;;
10170;SDS011;5127;50.922;6.988;2024-02-21T05:50:43;3.50;;;2.43;;
10170;SDS011;5127;50.922;6.988;2024-02-21T05:53:11;6.10;;;2.70;;
10170;SDS011;5127;50.922;6.988;2024-02-21T05:55:38;4.27;;;2.77;;
10170;SDS011;5127;50.922;6.988;2024-02-21T05:58:05;4.83;;;2.70;;
10170;SDS011;5127;50.922;6.988;2024-02-21T06:00:33;5.57;;;2.63;;
10170;SDS011;5127;50.922;6.988;2024-02-21T06:03:00;6.37;;;3.33;;
10170;SDS011;5127;50.922;6.988;2024-02-21T06:05:27;9.30;;;2.77;;
10170;SDS011;5127;50.922;6.988;2024-02-21T06:07:56;8.13;;;3.50;;
10170;SDS011;5127;50.922;6.988;2024-02-21T06:10:23;7.07;;;3.10;;
10170;SDS011;5127;50.922;6.988;2024-02-21T06:12:50;7.87;;;3.47;;
10170;SDS011;5127;50.922;6.988;2024-02-21T06:15:17;6.43;;;2.97;;
10170;SDS011;5127;50.922;6.988;2024-02-21T06:17:45;6.27;;;3.10;;
10170;SDS011;5127;50.922;6.988;2024-02-21T06:20:12;7.10;;;3.27;;
10170;SDS011;5127;50.922;6.988;2024-02-21T06:22:40;5.93;;;2.90;;
10170;SDS011;5127;50.922;6.988;2024-02-21T06:25:08;4.73;;;2.97;;
10170;SDS011;5127;50.922;6.988;2024-02-21T06:27:35;5.70;;;2.83;;
10170;SDS011;5127;50.922;6.988;2024-02-21T06:30:03;7.23;;;3.87;;
10170;SDS011;5127;50.922;6.988;2024-02-21T06:32:31;6.07;;;3.30;;
10170;SDS011;5127;50.922;6.988;2024-02-21T06:34:58;9.80;;;4.13;;
10170;SDS011;5127;50.922;6.988;2024-02-21T06:37:27;7.50;;;3.50;;
10170;SDS011;5127;50.922;6.988;2024-02-21T06:39:54;4.50;;;3.50;;
10170;SDS011;5127;50.922;6.988;2024-02-21T06:42:23;5.57;;;3.40;;
10170;SDS011;5127;50.922;6.988;2024-02-21T06:44:51;6.37;;;3.57;;
10170;SDS011;5127;50.922;6.988;2024-02-21T06:47:18;7.23;;;3.60;;
10170;SDS011;5127;50.922;6.988;2024-02-21T06:49:48;7.17;;;3.70;;
10170;SDS011;5127;50.922;6.988;2024-02-21T06:52:16;7.27;;;3.20;;
10170;SDS011;5127;50.922;6.988;2024-02-21T06:54:45;5.30;;;3.50;;
10170;SDS011;5127;50.922;6.988;2024-02-21T06:57:13;5.57;;;3.00;;
10170;SDS011;5127;50.922;6.988;2024-02-21T06:59:42;7.83;;;3.37;;
10170;SDS011;5127;50.922;6.988;2024-02-21T07:02:09;5.60;;;3.33;;
10170;SDS011;5127;50.922;6.988;2024-02-21T07:04:36;5.70;;;3.37;;
10170;SDS011;5127;50.922;6.988;2024-02-21T07:07:03;4.90;;;2.83;;
10170;SDS011;5127;50.922;6.988;2024-02-21T07:09:32;4.97;;;3.20;;
10170;SDS011;5127;50.922;6.988;2024-02-21T07:11:59;6.40;;;3.30;;
10170;SDS011;5127;50.922;6.988;2024-02-21T07:14:27;5.13;;;3.30;;
10170;SDS011;5127;50.922;6.988;2024-02-21T07:16:56;5.83;;;3.37;;
10170;SDS011;5127;50.922;6.988;2024-02-21T07:19:23;7.57;;;4.37;;
10170;SDS011;5127;50.922;6.988;2024-02-21T07:21:51;6.07;;;3.43;;
10170;SDS011;5127;50.922;6.988;2024-02-21T07:24:19;6.20;;;3.20;;
10170;SDS011;5127;50.922;6.988;2024-02-21T07:26:46;9.10;;;3.87;;
10170;SDS011;5127;50.922;6.988;2024-02-21T07:29:13;7.23;;;3.90;;
10170;SDS011;5127;50.922;6.988;2024-02-21T07:31:41;5.73;;;3.50;;
10170;SDS011;5127;50.922;6.988;2024-02-21T07:34:09;8.03;;;4.07;;
10170;SDS011;5127;50.922;6.988;2024-02-21T07:36:37;5.60;;;3.53;;
10170;SDS011;5127;50.922;6.988;2024-02-21T07:39:04;6.47;;;2.90;;
10170;SDS011;5127;50.922;6.988;2024-02-21T07:41:31;4.53;;;2.77;;
10170;SDS011;5127;50.922;6.988;2024-02-21T07:44:00;6.23;;;2.70;;
10170;SDS011;5127;50.922;6.988;2024-02-21T07:46:28;5.67;;;2.50;;
10170;SDS011;5127;50.922;6.988;2024-02-21T07:48:56;4.80;;;2.63;;
10170;SDS011;5127;50.922;6.988;2024-02-21T07:51:28;6.57;;;3.00;;
10170;SDS011;5127;50.922;6.988;2024-02-21T07:53:55;4.63;;;2.47;;
10170;SDS011;5127;50.922;6.988;2024-02-21T07:56:23;4.50;;;2.70;;
10170;SDS011;5127;50.922;6.988;2024-02-21T07:58:50;5.97;;;2.50;;
10170;SDS011;5127;50.922;6.988;2024-02-21T08:01:18;4.13;;;2.50;;
10170;SDS011;5127;50.922;6.988;2024-02-21T08:03:46;5.90;;;2.70;;
10170;SDS011;5127;50.922;6.988;2024-02-21T08:06:13;5.30;;;2.80;;
10170;SDS011;5127;50.922;6.988;2024-02-21T08:08:42;8.53;;;2.87;;
10170;SDS011;5127;50.922;6.988;2024-02-21T08:11:09;6.50;;;3.10;;
10170;SDS011;5127;50.922;6.988;2024-02-21T08:13:36;5.67;;;2.80;;
10170;SDS011;5127;50.922;6.988;2024-02-21T08:16:04;5.90;;;2.83;;
10170;SDS011;5127;50.922;6.988;2024-02-21T08:18:31;7.23;;;2.83;;
10170;SDS011;5127;50.922;6.988;2024-02-21T08:21:01;6.67;;;2.93;;
10170;SDS011;5127;50.922;6.988;2024-02-21T08:23:30;5.90;;;3.03;;
10170;SDS011;5127;50.922;6.988;2024-02-21T08:25:58;6.10;;;3.03;;
10170;SDS011;5127;50.922;6.988;2024-02-21T08:28:26;6.43;;;3.17;;
10170;SDS011;5127;50.922;6.988;2024-02-21T08:30:53;7.07;;;3.20;;
10170;SDS011;5127;50.922;6.988;2024-02-21T08:33:20;4.53;;;2.90;;
10170;SDS011;5127;50.922;6.988;2024-02-21T08:35:50;7.27;;;3.17;;
10170;SDS011;5127;50.922;6.988;2024-02-21T08:38:18;6.60;;;3.10;;
10170;SDS011;5127;50.922;6.988;2024-02-21T08:40:45;7.37;;;3.00;;
10170;SDS011;5127;50.922;6.988;2024-02-21T08:43:14;6.87;;;3.23;;
10170;SDS011;5127;50.922;6.988;2024-02-21T08:45:41;6.87;;;3.00;;
10170;SDS011;5127;50.922;6.988;2024-02-21T08:48:09;10.27;;;3.53;;
10170;SDS011;5127;50.922;6.988;2024-02-21T08:50:36;6.87;;;3.13;;
10170;SDS011;5127;50.922;6.988;2024-02-21T08:53:04;7.57;;;3.10;;
10170;SDS011;5127;50.922;6.988;2024-02-21T08:55:31;7.13;;;2.90;;
10170;SDS011;5127;50.922;6.988;2024-02-21T08:57:59;7.87;;;3.20;;
10170;SDS011;5127;50.922;6.988;2024-02-21T09:00:29;6.30;;;2.80;;
10170;SDS011;5127;50.922;6.988;2024-02-21T09:02:56;8.57;;;3.43;;
10170;SDS011;5127;50.922;6.988;2024-02-21T09:05:24;5.90;;;2.77;;
10170;SDS011;5127;50.922;6.988;2024-02-21T09:07:51;4.93;;;2.90;;
10170;SDS011;5127;50.922;6.988;2024-02-21T09:10:18;3.63;;;2.30;;
10170;SDS011;5127;50.922;6.988;2024-02-21T09:12:46;7.17;;;3.17;;
10170;SDS011;5127;50.922;6.988;2024-02-21T09:15:13;8.10;;;2.97;;
10170;SDS011;5127;50.922;6.988;2024-02-21T09:17:42;9.00;;;3.47;;
10170;SDS011;5127;50.922;6.988;2024-02-21T09:20:09;6.10;;;2.73;;
10170;SDS011;5127;50.922;6.988;2024-02-21T09:22:37;6.10;;;2.77;;
10170;SDS011;5127;50.922;6.988;2024-02-21T09:25:06;8.20;;;3.00;;
10170;SDS011;5127;50.922;6.988;2024-02-21T09:27:33;6.13;;;3.10;;
10170;SDS011;5127;50.922;6.988;2024-02-21T09:30:00;7.80;;;2.87;;
10170;SDS011;5127;50.922;6.988;2024-02-21T09:32:30;6.57;;;2.57;;
10170;SDS011;5127;50.922;6.988;2024-02-21T09:34:59;4.87;;;2.57;;
10170;SDS011;5127;50.922;6.988;2024-02-21T09:37:26;6.43;;;2.77;;
10170;SDS011;5127;50.922;6.988;2024-02-21T09:39:54;6.37;;;2.40;;
10170;SDS011;5127;50.922;6.988;2024-02-21T09:42:21;5.67;;;2.77;;
10170;SDS011;5127;50.922;6.988;2024-02-21T09:44:48;6.23;;;2.87;;
10170;SDS011;5127;50.922;6.988;2024-02-21T09:47:19;5.50;;;2.70;;
10170;SDS011;5127;50.922;6.988;2024-02-21T09:49:49;6.23;;;2.70;;
10170;SDS011;5127;50.922;6.988;2024-02-21T09:52:19;3.83;;;2.50;;
10170;SDS011;5127;50.922;6.988;2024-02-21T09:54:48;5.07;;;2.50;;
10170;SDS011;5127;50.922;6.988;2024-02-21T09:57:18;5.20;;;2.47;;
10170;SDS011;5127;50.922;6.988;2024-02-21T09:59:46;4.50;;;2.40;;
10170;SDS011;5127;50.922;6.988;2024-02-21T10:02:13;4.93;;;2.50;;
10170;SDS011;5127;50.922;6.988;2024-02-21T10:04:41;5.60;;;2.70;;
10170;SDS011;5127;50.922;6.988;2024-02-21T10:07:08;5.70;;;2.67;;
10170;SDS011;5127;50.922;6.988;2024-02-21T10:09:38;6.57;;;2.43;;
10170;SDS011;5127;50.922;6.988;2024-02-21T10:12:09;4.87;;;2.43;;
10170;SDS011;5127;50.922;6.988;2024-02-21T10:14:37;3.77;;;2.33;;
10170;SDS011;5127;50.922;6.988;2024-02-21T10:17:04;5.30;;;2.23;;
10170;SDS011;5127;50.922;6.988;2024-02-21T10:19:35;4.30;;;2.10;;
10170;SDS011;5127;50.922;6.988;2024-02-21T10:22:03;4.20;;;2.17;;
10170;SDS011;5127;50.922;6.988;2024-02-21T10:24:33;3.43;;;1.97;;
10170;SDS011;5127;50.922;6.988;2024-02-21T10:27:05;4.87;;;2.50;;
10170;SDS011;5127;50.922;6.988;2024-02-21T10:29:34;3.33;;;1.90;;
10170;SDS011;5127;50.922;6.988;2024-02-21T10:32:05;6.80;;;2.60;;
10170;SDS011;5127;50.922;6.988;2024-02-21T10:34:33;2.70;;;2.00;;
10170;SDS011;5127;50.922;6.988;2024-02-21T10:37:01;3.87;;;2.30;;
10170;SDS011;5127;50.922;6.988;2024-02-21T10:39:29;3.10;;;2.20;;
10170;SDS011;5127;50.922;6.988;2024-02-21T10:41:58;3.60;;;2.10;;
10170;SDS011;5127;50.922;6.988;2024-02-21T10:44:29;5.13;;;2.30;;
10170;SDS011;5127;50.922;6.988;2024-02-21T10:46:58;5.37;;;2.20;;
10170;SDS011;5127;50.922;6.988;2024-02-21T10:49:26;3.67;;;1.90;;
10170;SDS011;5127;50.922;6.988;2024-02-21T10:51:54;2.80;;;2.00;;
10170;SDS011;5127;50.922;6.988;2024-02-21T10:54:30;7.73;;;2.60;;
10170;SDS011;5127;50.922;6.988;2024-02-21T10:57:08;4.27;;;2.03;;
10170;SDS011;5127;50.922;6.988;2024-02-21T10:59:38;5.90;;;2.13;;
10170;SDS011;5127;50.922;6.988;2024-02-21T11:02:06;2.77;;;2.00;;
10170;SDS011;5127;50.922;6.988;2024-02-21T11:04:33;5.37;;;2.20;;
10170;SDS011;5127;50.922;6.988;2024-02-21T11:07:03;6.30;;;2.40;;
10170;SDS011;5127;50.922;6.988;2024-02-21T11:09:31;4.00;;;2.20;;
10170;SDS011;5127;50.922;6.988;2024-02-21T11:12:01;4.17;;;2.07;;
10170;SDS011;5127;50.922;6.988;2024-02-21T11:14:29;4.57;;;1.87;;
10170;SDS011;5127;50.922;6.988;2024-02-21T11:16:59;4.10;;;1.80;;
10170;SDS011;5127;50.922;6.988;2024-02-21T11:19:29;5.13;;;2.30;;
10170;SDS011;5127;50.922;6.988;2024-02-21T11:21:57;5.20;;;1.93;;
10170;SDS011;5127;50.922;6.988;2024-02-21T11:24:27;3.00;;;2.03;;
10170;SDS011;5127;50.922;6.988;2024-02-21T11:26:56;5.40;;;2.53;;
10170;SDS011;5127;50.922;6.988;2024-02-21T11:29:39;6.03;;;2.53;;
10170;SDS011;5127;50.922;6.988;2024-02-21T11:32:10;3.00;;;1.97;;
10170;SDS011;5127;50.922;6.988;2024-02-21T11:34:37;3.97;;;1.67;;
10170;SDS011;5127;50.922;6.988;2024-02-21T11:37:12;3.93;;;2.03;;
10170;SDS011;5127;50.922;6.988;2024-02-21T11:39:41;4.67;;;2.10;;
10170;SDS011;5127;50.922;6.988;2024-02-21T11:42:09;4.07;;;2.00;;
10170;SDS011;5127;50.922;6.988;2024-02-21T11:44:38;5.20;;;2.03;;
10170;SDS011;5127;50.922;6.988;2024-02-21T11:47:08;4.20;;;2.00;;
10170;SDS011;5127;50.922;6.988;2024-02-21T11:49:37;7.23;;;2.47;;
10170;SDS011;5127;50.922;6.988;2024-02-21T11:52:06;4.77;;;1.73;;
10170;SDS011;5127;50.922;6.988;2024-02-21T11:54:33;4.47;;;1.90;;
10170;SDS011;5127;50.922;6.988;2024-02-21T11:57:01;4.73;;;2.00;;
10170;SDS011;5127;50.922;6.988;2024-02-21T11:59:29;5.33;;;1.90;;
10170;SDS011;5127;50.922;6.988;2024-02-21T12:01:59;5.20;;;1.90;;
10170;SDS011;5127;50.922;6.988;2024-02-21T12:04:30;4.27;;;2.03;;
10170;SDS011;5127;50.922;6.988;2024-02-21T12:06:57;8.17;;;2.30;;
10170;SDS011;5127;50.922;6.988;2024-02-21T12:09:25;4.13;;;2.03;;
10170;SDS011;5127;50.922;6.988;2024-02-21T12:11:58;3.50;;;1.77;;
10170;SDS011;5127;50.922;6.988;2024-02-21T12:14:27;6.97;;;3.33;;
10170;SDS011;5127;50.922;6.988;2024-02-21T12:16:56;5.57;;;2.50;;
10170;SDS011;5127;50.922;6.988;2024-02-21T12:19:24;4.40;;;1.97;;
10170;SDS011;5127;50.922;6.988;2024-02-21T12:21:53;3.43;;;1.93;;
10170;SDS011;5127;50.922;6.988;2024-02-21T12:24:23;4.10;;;2.30;;
10170;SDS011;5127;50.922;6.988;2024-02-21T12:26:51;4.27;;;2.00;;
10170;SDS011;5127;50.922;6.988;2024-02-21T12:29:19;4.00;;;1.90;;
10170;SDS011;5127;50.922;6.988;2024-02-21T12:31:46;5.10;;;2.27;;
10170;SDS011;5127;50.922;6.988;2024-02-21T12:34:14;5.17;;;2.03;;
10170;SDS011;5127;50.922;6.988;2024-02-21T12:36:42;5.93;;;2.30;;
10170;SDS011;5127;50.922;6.988;2024-02-21T12:39:11;5.20;;;2.17;;
10170;SDS011;5127;50.922;6.988;2024-02-21T12:41:40;4.27;;;2.10;;
10170;SDS011;5127;50.922;6.988;2024-02-21T12:44:09;4.77;;;2.30;;
10170;SDS011;5127;50.922;6.988;2024-02-21T12:46:38;6.20;;;2.50;;
10170;SDS011;5127;50.922;6.988;2024-02-21T12:49:06;4.77;;;2.17;;
10170;SDS011;5127;50.922;6.988;2024-02-21T12:51:34;5.87;;;2.40;;
10170;SDS011;5127;50.922;6.988;2024-02-21T12:54:01;6.17;;;2.07;;
10170;SDS011;5127;50.922;6.988;2024-02-21T12:56:30;5.30;;;2.37;;
10170;SDS011;5127;50.922;6.988;2024-02-21T12:58:57;6.47;;;2.63;;
10170;SDS011;5127;50.922;6.988;2024-02-21T13:01:25;5.20;;;2.93;;
10170;SDS011;5127;50.922;6.988;2024-02-21T13:03:53;6.07;;;2.43;;
10170;SDS011;5127;50.922;6.988;2024-02-21T13:06:21;5.37;;;2.33;;
10170;SDS011;5127;50.922;6.988;2024-02-21T13:08:48;3.73;;;2.00;;
10170;SDS011;5127;50.922;6.988;2024-02-21T13:11:17;5.67;;;1.67;;
10170;SDS011;5127;50.922;6.988;2024-02-21T13:13:45;5.13;;;1.97;;
10170;SDS011;5127;50.922;6.988;2024-02-21T13:16:13;5.03;;;1.97;;
10170;SDS011;5127;50.922;6.988;2024-02-21T13:18:40;4.33;;;1.90;;
10170;SDS011;5127;50.922;6.988;2024-02-21T13:21:08;12.07;;;7.03;;
10170;SDS011;5127;50.922;6.988;2024-02-21T13:23:36;6.30;;;3.03;;
10170;SDS011;5127;50.922;6.988;2024-02-21T13:26:03;4.10;;;2.30;;
10170;SDS011;5127;50.922;6.988;2024-02-21T13:28:31;3.67;;;2.10;;
10170;SDS011;5127;50.922;6.988;2024-02-21T13:30:59;4.70;;;1.97;;
10170;SDS011;5127;50.922;6.988;2024-02-21T13:33:27;4.43;;;1.90;;
10170;SDS011;5127;50.922;6.988;2024-02-21T13:35:54;5.00;;;2.10;;
10170;SDS011;5127;50.922;6.988;2024-02-21T13:38:22;5.87;;;2.03;;
10170;SDS011;5127;50.922;6.988;2024-02-21T13:40:49;3.53;;;1.77;;
10170;SDS011;5127;50.922;6.988;2024-02-21T13:43:17;4.00;;;2.00;;
10170;SDS011;5127;50.922;6.988;2024-02-21T13:45:46;3.90;;;1.50;;
10170;SDS011;5127;50.922;6.988;2024-02-21T13:48:24;4.17;;;1.47;;
10170;SDS011;5127;50.922;6.988;2024-02-21T13:50:52;5.10;;;1.80;;
10170;SDS011;5127;50.922;6.988;2024-02-21T13:53:19;5.27;;;1.83;;
10170;SDS011;5127;50.922;6.988;2024-02-21T13:55:48;4.07;;;2.00;;
10170;SDS011;5127;50.922;6.988;2024-02-21T13:58:16;3.43;;;2.10;;
10170;SDS011;5127;50.922;6.988;2024-02-21T14:00:44;3.60;;;1.73;;
10170;SDS011;5127;50.922;6.988;2024-02-21T14:03:12;6.00;;;2.00;;
10170;SDS011;5127;50.922;6.988;2024-02-21T14:05:40;6.20;;;1.83;;
10170;SDS011;5127;50.922;6.988;2024-02-21T14:08:07;5.13;;;1.90;;
10170;SDS011;5127;50.922;6.988;2024-02-21T14:10:35;4.53;;;1.73;;
10170;SDS011;5127;50.922;6.988;2024-02-21T14:13:02;4.40;;;1.60;;
10170;SDS011;5127;50.922;6.988;2024-02-21T14:15:30;4.87;;;2.33;;
10170;SDS011;5127;50.922;6.988;2024-02-21T14:17:58;4.20;;;2.00;;
10170;SDS011;5127;50.922;6.988;2024-02-21T14:20:25;4.10;;;1.93;;
10170;SDS011;5127;50.922;6.988;2024-02-21T14:22:53;4.90;;;1.70;;
10170;SDS011;5127;50.922;6.988;2024-02-21T14:25:21;4.20;;;1.80;;
10170;SDS011;5127;50.922;6.988;2024-02-21T14:27:48;4.30;;;1.73;;
10170;SDS011;5127;50.922;6.988;2024-02-21T14:30:15;4.60;;;1.77;;
10170;SDS011;5127;50.922;6.988;2024-02-21T14:32:43;2.70;;;1.97;;
10170;SDS011;5127;50.922;6.988;2024-02-21T14:35:11;3.50;;;1.70;;
10170;SDS011;5127;50.922;6.988;2024-02-21T14:37:38;4.33;;;1.80;;
10170;SDS011;5127;50.922;6.988;2024-02-21T14:40:07;5.53;;;1.70;;
10170;SDS011;5127;50.922;6.988;2024-02-21T14:42:35;4.37;;;1.73;;
10170;SDS011;5127;50.922;6.988;2024-02-21T14:45:02;3.23;;;1.70;;
10170;SDS011;5127;50.922;6.988;2024-02-21T14:47:30;4.07;;;1.73;;
10170;SDS011;5127;50.922;6.988;2024-02-21T14:49:58;5.27;;;1.97;;
10170;SDS011;5127;50.922;6.988;2024-02-21T14:52:25;4.23;;;1.80;;
10170;SDS011;5127;50.922;6.988;2024-02-21T14:54:55;3.73;;;1.70;;
10170;SDS011;5127;50.922;6.988;2024-02-21T14:57:23;5.00;;;1.87;;
10170;SDS011;5127;50.922;6.988;2024-02-21T14:59:51;4.57;;;1.80;;
10170;SDS011;5127;50.922;6.988;2024-02-21T15:02:22;4.47;;;1.87;;
10170;SDS011;5127;50.922;6.988;2024-02-21T15:04:49;4.80;;;1.60;;